createdAt,value
2022-09-23T00:02:32.746Z,101193.75
2022-09-23T00:05:18.678Z,101185.00
2022-09-23T00:08:06.330Z,101192.03
2022-09-23T00:10:51.892Z,101186.78
2022-09-23T00:13:38.327Z,101182.94
2022-09-23T00:16:28.811Z,101188.09
2022-09-23T00:19:14.249Z,101179.63
2022-09-23T00:21:59.255Z,101176.28
2022-09-23T00:24:44.604Z,101176.13
2022-09-23T00:27:30.194Z,101173.53
2022-09-23T00:30:15.461Z,101178.63
2022-09-23T00:33:00.897Z,101169.22
2022-09-23T00:35:46.364Z,101166.91
2022-09-23T00:38:32.216Z,101154.91
2022-09-23T00:41:17.901Z,101157.38
2022-09-23T00:44:41.266Z,101161.34
2022-09-23T00:47:34.431Z,101166.28
2022-09-23T00:50:33.810Z,101162.25
2022-09-23T00:53:22.696Z,101151.72
2022-09-23T00:56:11.161Z,101154.34
2022-09-23T00:58:56.590Z,101153.41
2022-09-23T01:01:44.120Z,101140.44
2022-09-23T01:04:30.151Z,101152.91
2022-09-23T01:07:15.415Z,101145.56
2022-09-23T01:10:01.656Z,101147.03
2022-09-23T01:13:13.654Z,101147.06
2022-09-23T01:16:08.300Z,101140.94
2022-09-23T01:19:06.232Z,101138.19
2022-09-23T01:22:32.887Z,101129.06
2022-09-23T01:25:49.797Z,101125.28
2022-09-23T01:29:14.317Z,101127.69
2022-09-23T01:32:17.889Z,101127.97
2022-09-23T01:35:10.230Z,101119.19
2022-09-23T01:38:10.642Z,101117.47
2022-09-23T01:40:59.036Z,101116.13
2022-09-23T01:44:08.704Z,101113.97
2022-09-23T01:46:57.850Z,101109.69
2022-09-23T01:49:59.104Z,101104.53
2022-09-23T01:52:46.916Z,101106.00
2022-09-23T01:55:36.349Z,101109.50
2022-09-23T01:58:35.376Z,101100.97
2022-09-23T02:01:32.937Z,101104.38
2022-09-23T02:04:26.854Z,101102.50
2022-09-23T02:07:25.138Z,101100.75
2022-09-23T02:10:25.738Z,101105.91
2022-09-23T02:13:21.962Z,101106.72
2022-09-23T02:16:33.069Z,101113.50
2022-09-23T02:19:37.227Z,101109.44
2022-09-23T02:22:34.751Z,101098.06
2022-09-23T02:25:22.064Z,101107.47
2022-09-23T02:28:39.419Z,101100.44
2022-09-23T02:31:33.996Z,101102.91
2022-09-23T02:34:49.615Z,101106.41
2022-09-23T02:37:46.603Z,101103.91
2022-09-23T02:40:40.782Z,101098.69
2022-09-23T02:43:47.713Z,101093.53
2022-09-23T02:46:33.994Z,101095.00
2022-09-23T02:49:19.332Z,101084.59
2022-09-23T02:52:05.778Z,101085.19
2022-09-23T02:54:52.514Z,101081.31
2022-09-23T02:57:38.087Z,101076.69
2022-09-23T03:00:23.855Z,101079.38
2022-09-23T03:03:34.973Z,101076.16
2022-09-23T03:06:19.960Z,101078.50
2022-09-23T03:09:33.321Z,101082.63
2022-09-23T03:12:42.901Z,101067.47
2022-09-23T03:15:51.666Z,101057.91
2022-09-23T03:18:59.350Z,101058.88
2022-09-23T03:21:53.116Z,101055.59
2022-09-23T03:24:42.413Z,101049.38
2022-09-23T03:27:32.365Z,101068.22
2022-09-23T03:30:18.195Z,101066.28
2022-09-23T03:33:05.872Z,101058.00
2022-09-23T03:36:05.207Z,101049.75
2022-09-23T03:38:54.346Z,101053.47
2022-09-23T03:41:47.454Z,101058.38
2022-09-23T03:44:36.837Z,101054.00
2022-09-23T03:47:22.966Z,101049.16
2022-09-23T03:50:08.713Z,101039.53
2022-09-23T03:52:53.896Z,101031.81
2022-09-23T03:55:38.982Z,101028.22
2022-09-23T03:58:24.434Z,101022.75
2022-09-23T04:01:09.628Z,101023.91
2022-09-23T04:03:54.859Z,101029.66
2022-09-23T04:06:39.793Z,101020.44
2022-09-23T04:09:24.732Z,101019.41
2022-09-23T04:12:14.860Z,101017.38
2022-09-23T04:14:59.947Z,101020.97
2022-09-23T04:17:44.964Z,101015.13
2022-09-23T04:20:30.441Z,101008.09
2022-09-23T04:23:15.843Z,101010.47
2022-09-23T04:26:01.253Z,101005.44
2022-09-23T04:28:46.450Z,101004.56
2022-09-23T04:31:32.823Z,101014.69
2022-09-23T04:34:18.790Z,101007.91
2022-09-23T04:37:04.129Z,101006.19
2022-09-23T04:39:49.416Z,100992.59
2022-09-23T04:42:34.791Z,100994.94
2022-09-23T04:45:20.057Z,100998.38
2022-09-23T04:48:05.346Z,101002.75
2022-09-23T04:50:50.287Z,101000.28
2022-09-23T04:53:36.703Z,101004.00
2022-09-23T04:56:24.610Z,101010.72
2022-09-23T04:59:09.893Z,101008.97
2022-09-23T05:01:55.285Z,100996.03
2022-09-23T05:04:40.480Z,101003.13
2022-09-23T05:07:25.767Z,101001.09
2022-09-23T05:10:11.533Z,101004.53
2022-09-23T05:12:58.346Z,101011.13
2022-09-23T05:15:44.140Z,101013.53
2022-09-23T05:18:35.191Z,101011.69
2022-09-23T05:21:24.335Z,101011.72
2022-09-23T05:24:09.537Z,101013.53
2022-09-23T05:26:57.880Z,101005.81
2022-09-23T05:29:42.876Z,101006.53
2022-09-23T05:32:28.423Z,101006.94
2022-09-23T05:35:13.940Z,100990.44
2022-09-23T05:37:59.079Z,100994.19
2022-09-23T05:40:44.550Z,100996.00
2022-09-23T05:43:31.689Z,100984.84
2022-09-23T05:46:19.976Z,100978.22
2022-09-23T05:49:05.715Z,100982.63
2022-09-23T05:51:51.156Z,100976.53
2022-09-23T05:54:36.698Z,100975.84
2022-09-23T05:57:24.823Z,100982.59
2022-09-23T06:00:11.009Z,100990.63
2022-09-23T06:02:59.568Z,100979.53
2022-09-23T06:05:45.274Z,100979.69
2022-09-23T06:08:30.838Z,100982.47
2022-09-23T06:11:16.220Z,100971.13
2022-09-23T06:14:01.453Z,100976.56
2022-09-23T06:16:47.579Z,100970.06
2022-09-23T06:19:32.459Z,100972.72
2022-09-23T06:22:17.857Z,100977.44
2022-09-23T06:25:03.762Z,100974.13
2022-09-23T06:27:55.645Z,100970.25
2022-09-23T06:30:40.711Z,100954.19
2022-09-23T06:33:35.785Z,100941.63
2022-09-23T06:36:37.517Z,100952.22
2022-09-23T06:39:27.258Z,100947.41
2022-09-23T06:42:12.366Z,100939.75
2022-09-23T06:44:57.420Z,100938.94
2022-09-23T06:47:43.192Z,100906.53
2022-09-23T06:50:28.420Z,100893.31
2022-09-23T06:53:13.774Z,100883.88
2022-09-23T06:56:00.663Z,100897.94
2022-09-23T06:58:46.478Z,100894.22
2022-09-23T07:01:32.173Z,100894.19
2022-09-23T07:04:17.425Z,100891.19
2022-09-23T07:07:02.521Z,100914.84
2022-09-23T07:09:50.516Z,100907.38
2022-09-23T07:12:35.831Z,100915.16
2022-09-23T07:15:21.290Z,100904.97
2022-09-23T07:18:06.349Z,100912.78
2022-09-23T07:20:53.341Z,100918.97
2022-09-23T07:23:38.866Z,100913.50
2022-09-23T07:26:25.319Z,100891.56
2022-09-23T07:29:13.114Z,100884.09
2022-09-23T07:32:10.890Z,100864.81
2022-09-23T07:34:59.222Z,100847.72
2022-09-23T07:37:44.424Z,100841.63
2022-09-23T07:40:29.685Z,100855.63
2022-09-23T07:43:15.442Z,100846.81
2022-09-23T07:46:02.211Z,100810.72
2022-09-23T07:48:47.702Z,100799.59
2022-09-23T07:51:37.104Z,100794.47
2022-09-23T07:54:22.359Z,100817.88
2022-09-23T07:57:07.788Z,100830.84
2022-09-23T07:59:53.139Z,100819.66
2022-09-23T08:02:38.854Z,100792.69
2022-09-23T08:05:25.980Z,100796.22
2022-09-23T08:08:11.377Z,100827.44
2022-09-23T08:11:03.416Z,100828.34
2022-09-23T08:13:48.482Z,100813.56
2022-09-23T08:16:35.088Z,100817.03
2022-09-23T08:19:21.209Z,100823.97
2022-09-23T08:22:06.392Z,100783.00
2022-09-23T08:24:52.613Z,100805.69
2022-09-23T08:27:39.812Z,100813.56
2022-09-23T08:30:25.367Z,100828.31
2022-09-23T08:33:14.161Z,100796.19
2022-09-23T08:36:03.150Z,100820.47
2022-09-23T08:38:50.884Z,100796.81
2022-09-23T08:41:43.588Z,100755.75
2022-09-23T08:44:49.341Z,100800.50
2022-09-23T08:47:50.502Z,100819.63
2022-09-23T08:51:17.496Z,100812.69
2022-09-23T08:54:02.923Z,100817.03
2022-09-23T08:56:51.109Z,100833.56
2022-09-23T08:59:44.299Z,100818.75
2022-09-23T09:02:33.102Z,100833.56
2022-09-23T09:05:25.612Z,100811.81
2022-09-23T09:08:12.143Z,100820.53
2022-09-23T09:10:58.343Z,100837.03
2022-09-23T09:14:17.348Z,100850.88
2022-09-23T09:17:19.357Z,100860.41
2022-09-23T09:20:24.277Z,100866.47
2022-09-23T09:23:24.166Z,100846.56
2022-09-23T09:26:21.592Z,100828.31
2022-09-23T09:29:38.224Z,100852.56
2022-09-23T09:32:41.260Z,100872.59
2022-09-23T09:35:29.367Z,100865.69
2022-09-23T09:38:14.250Z,100829.22
2022-09-23T09:41:09.009Z,100810.09
2022-09-23T09:43:54.512Z,100847.47
2022-09-23T09:46:51.720Z,100857.88
2022-09-23T09:49:46.118Z,100830.06
2022-09-23T09:52:31.556Z,100815.28
2022-09-23T09:55:22.637Z,100807.47
2022-09-23T09:58:13.369Z,100800.50
2022-09-23T10:00:59.449Z,100798.72
2022-09-23T10:03:56.886Z,100837.81
2022-09-23T10:06:43.490Z,100833.47
2022-09-23T10:09:34.537Z,100813.53
2022-09-23T10:12:22.043Z,100786.47
2022-09-23T10:15:27.011Z,100831.81
2022-09-23T10:18:19.806Z,100777.88
2022-09-23T10:21:14.157Z,100822.16
2022-09-23T10:24:00.517Z,100799.47
2022-09-23T10:26:55.721Z,100825.50
2022-09-23T10:29:48.509Z,100777.53
2022-09-23T10:32:35.467Z,100797.72
2022-09-23T10:35:22.958Z,100795.06
2022-09-23T10:38:10.251Z,100797.59
2022-09-23T10:40:56.546Z,100751.41
2022-09-23T10:44:03.860Z,100762.00
2022-09-23T10:47:23.116Z,100795.00
2022-09-23T10:50:19.704Z,100726.28
2022-09-23T10:53:26.880Z,100771.66
2022-09-23T10:56:35.983Z,100762.78
2022-09-23T10:59:24.066Z,100754.78
2022-09-23T11:02:35.812Z,100798.13
2022-09-23T11:06:03.390Z,100755.38
2022-09-23T11:08:58.656Z,100763.88
2022-09-23T11:12:31.294Z,100714.03
2022-09-23T11:15:25.508Z,100719.34
2022-09-23T11:18:24.982Z,100719.56
2022-09-23T11:21:38.370Z,100722.41
2022-09-23T11:24:43.857Z,100726.69
2022-09-23T11:27:58.418Z,100723.97
2022-09-23T11:30:59.275Z,100721.09
2022-09-23T11:34:03.652Z,100687.25
2022-09-23T11:37:01.492Z,100732.78
2022-09-23T11:40:15.268Z,100732.53
2022-09-23T11:43:17.760Z,100707.28
2022-09-23T11:46:23.289Z,100662.59
2022-09-23T11:49:26.465Z,100676.50
2022-09-23T11:52:33.710Z,100715.66
2022-09-23T11:55:25.604Z,100650.50
2022-09-23T11:58:25.402Z,100692.44
2022-09-23T12:01:34.860Z,100709.16
2022-09-23T12:04:31.415Z,100677.69
2022-09-23T12:07:22.423Z,100655.09
2022-09-23T12:10:09.164Z,100702.91
2022-09-23T12:13:06.579Z,100733.53
2022-09-23T12:15:58.723Z,100686.97
2022-09-23T12:19:18.040Z,100687.69
2022-09-23T12:22:31.592Z,100650.03
2022-09-23T12:25:34.519Z,100637.03
2022-09-23T12:28:23.854Z,100611.63
2022-09-23T12:31:13.871Z,100617.53
2022-09-23T12:34:01.586Z,100586.44
2022-09-23T12:36:47.210Z,100614.91
2022-09-23T12:39:38.544Z,100600.31
2022-09-23T12:42:27.692Z,100597.28
2022-09-23T12:45:27.698Z,100575.69
2022-09-23T12:48:16.311Z,100594.06
2022-09-23T12:51:13.640Z,100581.13
2022-09-23T12:54:12.161Z,100629.41
2022-09-23T12:56:58.866Z,100588.63
2022-09-23T12:59:58.769Z,100588.94
2022-09-23T13:02:55.296Z,100576.28
2022-09-23T13:05:42.655Z,100598.72
2022-09-23T13:08:28.806Z,100612.50
2022-09-23T13:11:21.802Z,100613.56
2022-09-23T13:14:07.855Z,100589.78
2022-09-23T13:16:53.470Z,100590.41
2022-09-23T13:19:45.373Z,100556.34
2022-09-23T13:23:04.993Z,100602.88
2022-09-23T13:25:52.812Z,100597.50
2022-09-23T13:28:55.697Z,100578.31
2022-09-23T13:31:42.973Z,100551.38
2022-09-23T13:34:33.402Z,100559.97
2022-09-23T13:37:32.286Z,100534.75
2022-09-23T13:40:27.345Z,100567.19
2022-09-23T13:43:22.351Z,100550.94
2022-09-23T13:46:16.097Z,100581.44
2022-09-23T13:49:01.494Z,100579.38
2022-09-23T13:51:46.908Z,100584.59
2022-09-23T13:54:35.607Z,100567.88
2022-09-23T13:57:32.881Z,100567.78
2022-09-23T14:00:20.849Z,100588.88
2022-09-23T14:03:26.501Z,100567.19
2022-09-23T14:06:14.240Z,100568.97
2022-09-23T14:09:02.047Z,100603.81
2022-09-23T14:11:47.001Z,100579.22
2022-09-23T14:14:35.614Z,100540.13
2022-09-23T14:17:22.295Z,100572.38
2022-09-23T14:20:14.466Z,100578.66
2022-09-23T14:23:13.506Z,100563.97
2022-09-23T14:25:59.301Z,100553.28
2022-09-23T14:28:46.199Z,100568.28
2022-09-23T14:31:31.781Z,100587.53
2022-09-23T14:34:55.398Z,100615.47
2022-09-23T14:37:43.208Z,100568.44
2022-09-23T14:40:31.685Z,100599.72
2022-09-23T14:43:26.815Z,100557.69
2022-09-23T14:46:32.769Z,100558.56
2022-09-23T14:49:17.802Z,100564.94
2022-09-23T14:52:06.177Z,100605.06
2022-09-23T14:54:51.133Z,100577.16
2022-09-23T14:57:38.153Z,100567.53
2022-09-23T15:00:23.423Z,100568.41
2022-09-23T15:03:16.316Z,100559.59
2022-09-23T15:06:08.804Z,100583.09
2022-09-23T15:08:55.804Z,100549.84
2022-09-23T15:11:41.276Z,100578.63
2022-09-23T15:14:44.867Z,100560.16
2022-09-23T15:17:34.661Z,100545.72
2022-09-23T15:20:23.996Z,100559.75
2022-09-23T15:23:40.847Z,100537.00
2022-09-23T15:26:44.994Z,100535.19
2022-09-23T15:29:29.689Z,100557.13
2022-09-23T15:32:14.680Z,100532.63
2022-09-23T15:35:00.238Z,100543.00
2022-09-23T15:37:47.542Z,100539.38
2022-09-23T15:40:35.005Z,100545.56
2022-09-23T15:43:22.536Z,100529.06
2022-09-23T15:46:19.123Z,100533.53
2022-09-23T15:49:10.104Z,100545.00
2022-09-23T15:51:59.491Z,100552.03
2022-09-23T15:54:44.639Z,100591.94
2022-09-23T15:57:30.294Z,100574.28
2022-09-23T16:00:16.143Z,100561.28
2022-09-23T16:03:01.316Z,100551.69
2022-09-23T16:05:48.011Z,100543.81
2022-09-23T16:08:33.447Z,100558.66
2022-09-23T16:11:26.252Z,100558.66
2022-09-23T16:14:18.891Z,100588.41
2022-09-23T16:17:03.935Z,100655.59
2022-09-23T16:19:48.959Z,100667.88
2022-09-23T16:22:33.913Z,100661.00
2022-09-23T16:25:19.603Z,100653.19
2022-09-23T16:28:05.327Z,100654.13
2022-09-23T16:30:50.504Z,100648.06
2022-09-23T16:33:35.624Z,100589.94
2022-09-23T16:36:22.972Z,100614.28
2022-09-23T16:39:11.679Z,100656.09
2022-09-23T16:41:57.213Z,100675.34
2022-09-23T16:44:42.421Z,100666.66
2022-09-23T16:47:27.835Z,100656.16
2022-09-23T16:50:15.409Z,100639.63
2022-09-23T16:53:00.560Z,100638.06
2022-09-23T16:55:45.458Z,100665.13
2022-09-23T16:58:30.800Z,100692.16
2022-09-23T17:01:21.284Z,100697.59
2022-09-23T17:04:07.330Z,100696.84
2022-09-23T17:06:53.873Z,100660.25
2022-09-23T17:09:38.918Z,100652.41
2022-09-23T17:12:29.145Z,100621.19
2022-09-23T17:15:14.406Z,100621.22
2022-09-23T17:17:59.292Z,100604.66
2022-09-23T17:20:44.153Z,100620.31
2022-09-23T17:23:30.281Z,100610.81
2022-09-23T17:26:15.534Z,100650.88
2022-09-23T17:29:00.798Z,100657.88
2022-09-23T17:31:46.008Z,100671.81
2022-09-23T17:34:31.381Z,100664.91
2022-09-23T17:37:16.781Z,100631.03
2022-09-23T17:40:01.946Z,100632.84
2022-09-23T17:42:47.092Z,100688.50
2022-09-23T17:45:32.089Z,100677.22
2022-09-23T17:48:17.634Z,100696.34
2022-09-23T17:51:05.938Z,100704.16
2022-09-23T17:53:51.274Z,100696.34
2022-09-23T17:56:36.293Z,100670.28
2022-09-23T17:59:21.852Z,100656.38
2022-09-23T18:02:07.092Z,100659.84
2022-09-23T18:04:52.441Z,100678.13
2022-09-23T18:07:37.466Z,100676.38
2022-09-23T18:10:22.387Z,100668.53
2022-09-23T18:13:07.627Z,100690.25
2022-09-23T18:15:53.216Z,100682.47
2022-09-23T18:18:38.532Z,100680.72
2022-09-23T18:21:27.594Z,100677.25
2022-09-23T18:27:17.881Z,100641.66
2022-09-23T18:30:03.839Z,100659.91
2022-09-23T18:32:48.709Z,100667.72
2022-09-23T18:35:34.120Z,100673.78
2022-09-23T18:38:19.212Z,100686.78
2022-09-23T18:41:04.840Z,100680.72
2022-09-23T18:43:50.275Z,100671.19
2022-09-23T18:46:35.577Z,100658.16
2022-09-23T18:49:20.873Z,100670.31
2022-09-23T18:52:05.676Z,100659.00
2022-09-23T18:54:55.074Z,100648.59
2022-09-23T18:57:39.975Z,100661.66
2022-09-23T19:00:25.066Z,100640.78
2022-09-23T19:03:10.612Z,100650.34
2022-09-23T19:06:04.862Z,100643.38
2022-09-23T19:08:54.389Z,100646.00
2022-09-23T19:11:39.747Z,100639.03
2022-09-23T19:14:25.115Z,100630.34
2022-09-23T19:17:10.568Z,100646.84
2022-09-23T19:19:55.639Z,100641.66
2022-09-23T19:22:45.518Z,100654.69
2022-09-23T19:25:30.878Z,100656.38
2022-09-23T19:28:15.870Z,100667.63
2022-09-23T19:31:12.116Z,100678.91
2022-09-23T19:34:00.075Z,100677.13
2022-09-23T19:36:46.687Z,100677.16
2022-09-23T19:39:31.990Z,100676.25
2022-09-23T19:42:17.306Z,100684.84
2022-09-23T19:45:02.299Z,100680.47
2022-09-23T19:47:47.537Z,100667.53
2022-09-23T19:50:32.672Z,100643.31
2022-09-23T19:53:18.026Z,100630.31
2022-09-23T19:56:03.500Z,100651.13
2022-09-23T19:58:51.388Z,100656.34
2022-09-23T20:01:36.846Z,100648.56
2022-09-23T20:04:22.006Z,100614.72
2022-09-23T20:07:07.013Z,100599.09
2022-09-23T20:09:51.974Z,100643.34
2022-09-23T20:12:37.438Z,100664.13
2022-09-23T20:15:22.661Z,100664.13
2022-09-23T20:18:07.405Z,100672.69
2022-09-23T20:20:55.617Z,100665.75
2022-09-23T20:23:42.091Z,100672.63
2022-09-23T20:26:27.034Z,100662.28
2022-09-23T20:29:12.065Z,100661.41
2022-09-23T20:31:57.259Z,100661.44
2022-09-23T20:34:42.145Z,100657.94
2022-09-23T20:37:27.068Z,100657.91
2022-09-23T20:40:12.070Z,100646.63
2022-09-23T20:42:57.423Z,100644.84
2022-09-23T20:45:50.023Z,100660.44
2022-09-23T20:48:35.576Z,100659.53
2022-09-23T20:51:20.825Z,100653.47
2022-09-23T20:54:06.654Z,100643.94
2022-09-23T20:56:51.970Z,100640.50
2022-09-23T20:59:38.184Z,100651.59
2022-09-23T21:02:23.567Z,100660.19
2022-09-23T21:05:09.036Z,100659.38
2022-09-23T21:07:54.189Z,100651.66
2022-09-23T21:10:39.054Z,100645.66
2022-09-23T21:13:25.043Z,100639.59
2022-09-23T21:16:10.736Z,100643.00
2022-09-23T21:18:57.799Z,100651.75
2022-09-23T21:21:42.825Z,100641.34
2022-09-23T21:25:12.118Z,100644.84
2022-09-23T21:27:33.249Z,100650.81
2022-09-23T21:30:18.526Z,100638.59
2022-09-23T21:33:03.560Z,100635.97
2022-09-23T21:35:48.450Z,100640.13
2022-09-23T21:38:37.420Z,100631.47
2022-09-23T21:41:22.285Z,100644.41
2022-09-23T21:44:07.446Z,100648.72
2022-09-23T21:46:54.204Z,100654.81
2022-09-23T21:49:39.361Z,100643.66
2022-09-23T21:52:24.479Z,100642.81
2022-09-23T21:55:09.632Z,100648.00
2022-09-23T21:57:55.136Z,100653.19
2022-09-23T22:00:40.545Z,100648.91
2022-09-23T22:03:25.863Z,100646.13
2022-09-23T22:06:17.126Z,100630.78
2022-09-23T22:09:06.155Z,100631.59
2022-09-23T22:11:51.976Z,100642.84
2022-09-23T22:14:38.109Z,100645.50
2022-09-23T22:17:23.126Z,100638.56
2022-09-23T22:20:08.329Z,100645.38
2022-09-23T22:22:54.405Z,100647.97
2022-09-23T22:25:39.663Z,100647.00
2022-09-23T22:28:24.629Z,100646.13
2022-09-23T22:31:09.718Z,100633.22
2022-09-23T22:33:54.696Z,100637.56
2022-09-23T22:36:39.850Z,100632.38
2022-09-23T22:39:26.128Z,100624.56
2022-09-23T22:42:12.254Z,100623.63
2022-09-23T22:44:57.329Z,100611.56
2022-09-23T22:47:42.942Z,100623.72
2022-09-23T22:50:28.271Z,100617.63
2022-09-23T22:53:13.162Z,100622.88
2022-09-23T22:55:59.124Z,100621.19
2022-09-23T22:58:44.243Z,100602.06
2022-09-23T23:01:30.495Z,100603.78
2022-09-23T23:04:15.577Z,100598.69
2022-09-23T23:07:00.812Z,100590.03
2022-09-23T23:09:47.406Z,100597.78
2022-09-23T23:12:32.615Z,100589.97
2022-09-23T23:15:17.631Z,100583.91
2022-09-23T23:18:02.705Z,100596.03
2022-09-23T23:20:47.514Z,100587.41
2022-09-23T23:23:36.697Z,100577.03
2022-09-23T23:26:24.041Z,100582.16
2022-09-23T23:29:11.163Z,100576.06
2022-09-23T23:31:56.359Z,100581.25
2022-09-23T23:34:41.284Z,100586.44
2022-09-23T23:37:29.021Z,100585.56
2022-09-23T23:40:13.924Z,100567.44
2022-09-23T23:42:59.301Z,100576.84
2022-09-23T23:45:44.196Z,100581.88
2022-09-23T23:48:29.268Z,100593.13
2022-09-23T23:51:15.691Z,100575.84
2022-09-23T23:54:00.883Z,100585.44
2022-09-23T23:56:46.206Z,100589.84
2022-09-23T23:59:31.063Z,100583.97
